createdAt,value
2023-05-19T00:01:38.133Z,91.10
2023-05-19T00:05:45.631Z,91.20
2023-05-19T00:09:47.942Z,91.30
2023-05-19T00:13:51.126Z,91.30
2023-05-19T00:17:55.428Z,91.30
2023-05-19T00:21:58.154Z,91.60
2023-05-19T00:26:00.527Z,91.60
2023-05-19T00:30:02.664Z,91.60
2023-05-19T00:34:04.638Z,91.70
2023-05-19T00:38:06.816Z,91.70
2023-05-19T00:42:09.382Z,91.90
2023-05-19T00:46:11.490Z,92.00
2023-05-19T00:50:13.854Z,91.90
2023-05-19T00:54:16.463Z,92.40
2023-05-19T00:58:19.217Z,92.90
2023-05-19T01:02:21.565Z,93.50
2023-05-19T01:06:23.612Z,93.40
2023-05-19T01:10:25.711Z,92.70
2023-05-19T01:14:29.558Z,92.50
2023-05-19T01:18:40.899Z,92.80
2023-05-19T01:23:15.338Z,92.40
2023-05-19T01:27:40.531Z,92.40
2023-05-19T01:31:47.223Z,92.30
2023-05-19T01:35:50.375Z,92.40
2023-05-19T01:39:55.694Z,92.60
2023-05-19T01:43:58.331Z,93.30
2023-05-19T01:48:03.293Z,93.10
2023-05-19T01:52:05.773Z,93.10
2023-05-19T01:56:08.187Z,92.70
2023-05-19T02:00:25.269Z,92.60
2023-05-19T02:04:45.116Z,93.30
2023-05-19T02:09:36.629Z,93.10
2023-05-19T02:13:43.986Z,93.00
2023-05-19T02:17:50.473Z,92.70
2023-05-19T02:21:52.682Z,92.30
2023-05-19T02:25:57.055Z,92.30
2023-05-19T02:29:59.122Z,92.40
2023-05-19T02:34:01.083Z,92.80
2023-05-19T02:38:03.358Z,92.40
2023-05-19T02:42:05.675Z,92.90
2023-05-19T02:46:08.028Z,92.60
2023-05-19T02:50:11.026Z,92.80
2023-05-19T02:54:13.026Z,92.70
2023-05-19T02:58:15.504Z,92.90
2023-05-19T03:02:17.554Z,92.50
2023-05-19T03:06:20.023Z,92.60
2023-05-19T03:10:22.009Z,92.40
2023-05-19T03:14:24.589Z,92.20
2023-05-19T03:18:27.222Z,92.20
2023-05-19T03:22:29.231Z,92.60
2023-05-19T03:26:31.441Z,92.50
2023-05-19T03:30:33.814Z,92.30
2023-05-19T03:34:49.571Z,92.40
2023-05-19T03:38:51.911Z,92.30
2023-05-19T03:42:54.617Z,92.60
2023-05-19T03:46:56.984Z,93.20
2023-05-19T03:51:34.848Z,93.50
2023-05-19T03:55:44.847Z,93.70
2023-05-19T03:59:48.164Z,93.80
2023-05-19T04:03:50.310Z,93.60
2023-05-19T04:07:52.379Z,93.30
2023-05-19T04:11:54.306Z,93.00
2023-05-19T04:15:56.557Z,92.90
2023-05-19T04:19:58.569Z,93.50
2023-05-19T04:24:00.699Z,93.70
2023-05-19T04:28:03.107Z,94.20
2023-05-19T04:32:08.036Z,93.70
2023-05-19T04:36:11.546Z,93.50
2023-05-19T04:40:16.122Z,94.00
2023-05-19T04:44:19.298Z,93.90
2023-05-19T04:48:24.481Z,93.70
2023-05-19T04:52:27.820Z,94.40
2023-05-19T04:56:30.118Z,94.60
2023-05-19T05:00:35.874Z,95.10
2023-05-19T05:04:43.548Z,95.00
2023-05-19T05:08:45.780Z,94.80
2023-05-19T05:12:47.957Z,94.50
2023-05-19T05:16:50.867Z,94.70
2023-05-19T05:20:57.853Z,95.00
2023-05-19T05:25:01.858Z,95.00
2023-05-19T05:29:04.547Z,95.00
2023-05-19T05:33:06.892Z,94.50
2023-05-19T05:37:15.296Z,94.60
2023-05-19T05:41:17.890Z,94.60
2023-05-19T05:45:25.085Z,94.70
2023-05-19T05:49:28.504Z,94.40
2023-05-19T05:53:34.466Z,94.30
2023-05-19T05:57:36.985Z,93.40
2023-05-19T06:01:39.846Z,94.00
2023-05-19T06:05:44.159Z,94.00
2023-05-19T06:09:46.489Z,94.30
2023-05-19T06:13:49.798Z,94.00
2023-05-19T06:18:07.268Z,93.80
2023-05-19T06:22:09.302Z,94.30
2023-05-19T06:26:11.589Z,94.20
2023-05-19T06:30:14.286Z,94.40
2023-05-19T06:34:40.538Z,94.00
2023-05-19T06:38:42.829Z,94.10
2023-05-19T06:42:45.420Z,94.00
2023-05-19T06:46:56.216Z,94.40
2023-05-19T06:50:58.657Z,94.20
2023-05-19T06:55:01.644Z,94.70
2023-05-19T06:59:05.329Z,94.80
2023-05-19T07:03:11.460Z,95.00
2023-05-19T07:07:14.055Z,94.30
2023-05-19T07:11:16.197Z,93.50
2023-05-19T07:15:18.870Z,93.40
2023-05-19T07:19:21.126Z,93.20
2023-05-19T07:23:23.567Z,93.70
2023-05-19T07:27:25.744Z,93.60
2023-05-19T07:31:27.916Z,93.70
2023-05-19T07:35:29.832Z,94.40
2023-05-19T07:39:32.406Z,93.40
2023-05-19T07:43:34.424Z,92.80
2023-05-19T07:47:36.675Z,92.90
2023-05-19T07:51:38.720Z,92.70
2023-05-19T07:55:41.105Z,94.00
2023-05-19T07:59:43.078Z,94.30
2023-05-19T08:03:45.059Z,93.90
2023-05-19T08:07:47.073Z,93.90
2023-05-19T08:11:49.954Z,94.00
2023-05-19T08:15:51.946Z,93.50
2023-05-19T08:19:54.034Z,93.50
2023-05-19T08:23:57.224Z,93.10
2023-05-19T08:27:59.283Z,92.60
2023-05-19T08:32:02.700Z,92.60
2023-05-19T08:36:05.113Z,92.90
2023-05-19T08:40:08.986Z,92.70
2023-05-19T08:44:11.265Z,91.90
2023-05-19T08:48:14.623Z,91.40
2023-05-19T08:52:21.066Z,91.20
2023-05-19T08:56:25.250Z,92.00
2023-05-19T09:00:28.412Z,91.80
2023-05-19T09:04:31.125Z,92.60
2023-05-19T09:08:33.410Z,92.30
2023-05-19T09:12:35.725Z,91.80
2023-05-19T09:16:38.568Z,91.50
2023-05-19T09:20:42.309Z,92.30
2023-05-19T09:24:44.939Z,92.30
2023-05-19T09:28:47.849Z,92.40
2023-05-19T09:32:52.057Z,93.20
2023-05-19T09:36:54.497Z,92.10
2023-05-19T09:40:58.148Z,91.60
2023-05-19T09:45:02.081Z,91.80
2023-05-19T09:49:09.633Z,92.90
2023-05-19T09:53:14.345Z,92.40
2023-05-19T09:57:17.057Z,92.30
2023-05-19T10:01:19.437Z,93.10
2023-05-19T10:05:21.437Z,92.90
2023-05-19T10:09:25.023Z,92.90
2023-05-19T10:13:29.152Z,92.30
2023-05-19T10:17:32.465Z,91.70
2023-05-19T10:21:34.616Z,92.00
2023-05-19T10:25:38.099Z,92.10
2023-05-19T10:29:45.772Z,92.40
2023-05-19T10:33:59.653Z,92.50
2023-05-19T10:38:20.708Z,92.40
2023-05-19T10:42:40.902Z,91.90
2023-05-19T10:46:43.587Z,91.60
2023-05-19T10:50:46.847Z,91.80
2023-05-19T10:54:49.787Z,92.20
2023-05-19T10:58:52.326Z,92.00
2023-05-19T11:02:57.603Z,91.90
2023-05-19T11:07:03.640Z,91.60
2023-05-19T11:11:18.131Z,92.00
2023-05-19T11:15:25.962Z,91.60
2023-05-19T11:19:34.487Z,92.30
2023-05-19T11:23:41.813Z,92.30
2023-05-19T11:27:47.045Z,91.90
2023-05-19T11:31:49.439Z,92.20
2023-05-19T11:35:51.630Z,92.00
2023-05-19T11:39:53.718Z,92.00
2023-05-19T11:43:55.892Z,92.80
2023-05-19T11:48:02.370Z,92.80
2023-05-19T11:52:05.841Z,92.30
2023-05-19T11:56:07.938Z,92.10
2023-05-19T12:00:11.287Z,92.30
2023-05-19T12:04:13.392Z,92.20
2023-05-19T12:08:17.601Z,91.60
2023-05-19T12:12:21.280Z,91.20
2023-05-19T12:16:23.777Z,91.20
2023-05-19T12:20:27.168Z,91.90
2023-05-19T12:24:29.748Z,92.50
2023-05-19T12:28:31.981Z,92.70
2023-05-19T12:32:37.569Z,92.10
2023-05-19T12:36:41.638Z,91.90
2023-05-19T12:40:44.266Z,91.30
2023-05-19T12:44:49.993Z,91.10
2023-05-19T12:48:52.084Z,91.90
2023-05-19T12:52:54.174Z,91.50
2023-05-19T12:56:58.833Z,90.70
2023-05-19T13:01:00.888Z,90.40
2023-05-19T13:05:04.774Z,90.60
2023-05-19T13:09:07.237Z,91.10
2023-05-19T13:13:10.087Z,91.00
2023-05-19T13:17:12.149Z,90.70
2023-05-19T13:21:15.095Z,90.80
2023-05-19T13:25:17.709Z,90.50
2023-05-19T13:29:19.861Z,91.10
2023-05-19T13:33:22.016Z,91.70
2023-05-19T13:37:24.359Z,92.20
2023-05-19T13:41:26.826Z,92.60
2023-05-19T13:45:29.185Z,93.10
2023-05-19T13:49:31.413Z,92.40
2023-05-19T13:53:34.973Z,92.50
2023-05-19T13:57:37.052Z,92.50
2023-05-19T14:01:38.998Z,92.40
2023-05-19T14:05:41.046Z,92.30
2023-05-19T14:09:43.200Z,92.20
2023-05-19T14:13:45.700Z,92.60
2023-05-19T14:17:49.161Z,92.40
2023-05-19T14:21:51.303Z,92.80
2023-05-19T14:25:53.414Z,92.70
2023-05-19T14:29:55.461Z,92.20
2023-05-19T14:33:57.939Z,91.80
2023-05-19T14:37:59.940Z,92.20
2023-05-19T14:42:02.059Z,93.00
2023-05-19T14:46:04.138Z,92.20
2023-05-19T14:50:06.576Z,91.50
2023-05-19T14:54:08.558Z,91.50
2023-05-19T14:58:26.873Z,91.40
2023-05-19T15:02:30.928Z,91.20
2023-05-19T15:06:32.957Z,91.60
2023-05-19T15:10:35.018Z,92.40
2023-05-19T15:14:37.031Z,92.00
2023-05-19T15:18:39.116Z,90.80
2023-05-19T15:22:41.296Z,90.50
2023-05-19T15:26:43.260Z,91.00
2023-05-19T15:30:45.572Z,91.80
2023-05-19T15:34:47.538Z,92.10
2023-05-19T15:38:49.622Z,92.00
2023-05-19T15:42:51.613Z,92.20
2023-05-19T15:46:53.906Z,92.50
2023-05-19T15:50:58.137Z,92.30
2023-05-19T15:55:00.277Z,92.00
2023-05-19T15:59:02.497Z,92.00
2023-05-19T16:03:04.721Z,91.90
2023-05-19T16:07:07.772Z,91.00
2023-05-19T16:11:09.757Z,91.80
2023-05-19T16:15:11.729Z,91.80
2023-05-19T16:19:13.908Z,91.50
2023-05-19T16:23:16.141Z,92.40
2023-05-19T16:27:18.510Z,91.80
2023-05-19T16:31:20.741Z,91.40
2023-05-19T16:35:23.196Z,90.90
2023-05-19T16:39:25.176Z,91.10
2023-05-19T16:43:27.391Z,91.30
2023-05-19T16:47:29.653Z,91.10
2023-05-19T16:51:31.812Z,91.20
2023-05-19T16:55:33.853Z,91.00
2023-05-19T16:59:35.919Z,91.40
2023-05-19T17:03:38.018Z,91.30
2023-05-19T17:07:39.887Z,92.10
2023-05-19T17:11:42.236Z,91.90
2023-05-19T17:15:44.227Z,91.60
2023-05-19T17:19:46.911Z,91.70
2023-05-19T17:23:49.481Z,92.30
2023-05-19T17:27:52.387Z,92.00
2023-05-19T17:31:55.497Z,91.90
2023-05-19T17:35:57.685Z,92.10
2023-05-19T17:40:00.049Z,92.20
2023-05-19T17:44:03.737Z,91.90
2023-05-19T17:48:06.472Z,91.70
2023-05-19T17:52:09.208Z,91.10
2023-05-19T17:56:12.569Z,91.60
2023-05-19T18:00:15.164Z,91.70
2023-05-19T18:04:17.617Z,91.70
2023-05-19T18:08:20.015Z,91.80
2023-05-19T18:12:22.799Z,92.20
2023-05-19T18:16:25.822Z,92.30
2023-05-19T18:20:28.784Z,92.30
2023-05-19T18:24:30.956Z,92.30
2023-05-19T18:28:33.333Z,92.30
2023-05-19T18:32:35.555Z,92.40
2023-05-19T18:36:37.616Z,92.40
2023-05-19T18:40:43.683Z,92.50
2023-05-19T18:44:47.099Z,92.70
2023-05-19T18:48:50.707Z,92.80
2023-05-19T18:52:52.721Z,93.10
2023-05-19T18:56:55.377Z,93.50
2023-05-19T19:00:58.222Z,93.50
2023-05-19T19:05:00.469Z,93.80
2023-05-19T19:09:02.660Z,94.10
2023-05-19T19:13:05.627Z,94.30
2023-05-19T19:17:07.744Z,94.50
2023-05-19T19:21:09.759Z,94.80
2023-05-19T19:25:11.825Z,94.70
2023-05-19T19:29:16.567Z,94.90
2023-05-19T19:33:18.758Z,95.10
2023-05-19T19:37:20.914Z,95.30
2023-05-19T19:41:23.077Z,95.60
2023-05-19T19:45:25.273Z,95.80
2023-05-19T19:49:27.328Z,95.80
2023-05-19T19:53:29.344Z,95.80
2023-05-19T19:57:34.161Z,96.00
2023-05-19T20:01:36.412Z,96.10
2023-05-19T20:05:39.471Z,96.20
2023-05-19T20:09:41.512Z,96.10
2023-05-19T20:13:43.540Z,95.70
2023-05-19T20:17:45.960Z,95.70
2023-05-19T20:21:48.082Z,95.60
2023-05-19T20:26:06.705Z,95.30
2023-05-19T20:30:12.379Z,95.30
2023-05-19T20:34:14.466Z,95.50
2023-05-19T20:38:16.650Z,95.60
2023-05-19T20:42:18.661Z,95.30
2023-05-19T20:46:20.679Z,95.60
2023-05-19T20:50:22.790Z,95.60
2023-05-19T20:54:24.997Z,95.40
2023-05-19T20:58:30.115Z,95.10
2023-05-19T21:02:32.636Z,94.90
2023-05-19T21:06:34.777Z,95.10
2023-05-19T21:10:36.882Z,95.30
2023-05-19T21:14:38.843Z,95.50
2023-05-19T21:18:40.978Z,95.50
2023-05-19T21:22:43.018Z,95.40
2023-05-19T21:26:45.764Z,95.20
2023-05-19T21:30:49.367Z,95.20
2023-05-19T21:34:51.664Z,95.10
2023-05-19T21:38:54.535Z,95.00
2023-05-19T21:42:56.484Z,95.20
2023-05-19T21:46:58.559Z,95.70
2023-05-19T21:51:00.686Z,95.20
2023-05-19T21:55:02.966Z,95.30
2023-05-19T21:59:05.099Z,95.40
2023-05-19T22:03:07.343Z,95.30
2023-05-19T22:07:09.343Z,95.00
2023-05-19T22:11:11.415Z,95.00
2023-05-19T22:15:14.364Z,95.40
2023-05-19T22:19:16.378Z,95.50
2023-05-19T22:23:18.517Z,95.90
2023-05-19T22:27:20.684Z,95.80
2023-05-19T22:31:22.787Z,95.40
2023-05-19T22:35:25.145Z,95.70
2023-05-19T22:39:27.230Z,96.50
2023-05-19T22:43:29.333Z,96.30
2023-05-19T22:47:31.365Z,96.20
2023-05-19T22:51:33.638Z,96.60
2023-05-19T22:55:36.090Z,96.60
2023-05-19T22:59:38.374Z,96.30
2023-05-19T23:03:40.645Z,96.10
2023-05-19T23:07:42.740Z,96.60
2023-05-19T23:11:45.282Z,96.60
2023-05-19T23:15:48.876Z,96.40
2023-05-19T23:19:51.551Z,96.50
2023-05-19T23:23:53.588Z,96.30
2023-05-19T23:27:55.857Z,95.90
2023-05-19T23:31:57.998Z,95.70
2023-05-19T23:36:05.248Z,95.90
2023-05-19T23:40:07.993Z,96.00
2023-05-19T23:44:10.029Z,96.20
2023-05-19T23:48:12.163Z,96.10
2023-05-19T23:52:15.953Z,96.90
2023-05-19T23:56:18.142Z,96.40
